createdAt,value
2022-08-20T00:01:01.689Z,12.35
2022-08-20T00:01:53.984Z,12.37
2022-08-20T00:02:57.874Z,12.38
2022-08-20T00:03:53.979Z,12.40
2022-08-20T00:04:54.226Z,12.44
2022-08-20T00:06:01.640Z,12.47
2022-08-20T00:06:53.987Z,12.52
2022-08-20T00:07:54.145Z,12.56
2022-08-20T00:08:54.065Z,12.63
2022-08-20T00:09:53.911Z,12.67
2022-08-20T00:10:55.735Z,12.75
2022-08-20T00:11:53.957Z,12.87
2022-08-20T00:12:54.567Z,13.05
2022-08-20T00:13:56.690Z,13.24
2022-08-20T00:14:53.934Z,13.41
2022-08-20T00:15:54.449Z,13.59
2022-08-20T00:16:54.025Z,13.75
2022-08-20T00:17:54.899Z,13.92
2022-08-20T00:18:54.476Z,14.05
2022-08-20T00:19:53.949Z,14.16
2022-08-20T00:20:55.642Z,14.28
2022-08-20T00:21:58.180Z,14.39
2022-08-20T00:22:54.276Z,14.49
2022-08-20T00:23:55.569Z,14.52
2022-08-20T00:24:53.915Z,14.63
2022-08-20T00:25:54.516Z,14.75
2022-08-20T00:26:53.959Z,14.81
2022-08-20T00:27:53.952Z,14.79
2022-08-20T00:29:53.994Z,14.78
2022-08-20T00:30:53.987Z,14.80
2022-08-20T00:31:53.941Z,14.79
2022-08-20T00:32:58.018Z,14.75
2022-08-20T00:33:54.570Z,14.73
2022-08-20T00:34:53.900Z,14.75
2022-08-20T00:35:57.941Z,14.73
2022-08-20T00:36:53.877Z,14.76
2022-08-20T00:37:57.455Z,14.78
2022-08-20T00:38:53.902Z,14.80
2022-08-20T00:39:53.978Z,14.87
2022-08-20T00:40:56.442Z,14.89
2022-08-20T00:41:53.972Z,14.93
2022-08-20T00:42:58.245Z,15.00
2022-08-20T00:44:09.288Z,15.11
2022-08-20T00:44:53.857Z,15.20
2022-08-20T00:45:56.565Z,15.28
2022-08-20T00:46:54.760Z,15.36
2022-08-20T00:47:55.757Z,15.46
2022-08-20T00:48:56.320Z,15.56
2022-08-20T00:49:53.874Z,15.66
2022-08-20T00:50:57.997Z,15.75
2022-08-20T00:51:57.788Z,15.86
2022-08-20T00:52:54.728Z,15.95
2022-08-20T00:53:56.542Z,16.04
2022-08-20T00:54:58.855Z,16.13
2022-08-20T00:55:54.024Z,16.22
2022-08-20T00:57:03.717Z,16.32
2022-08-20T00:58:01.369Z,16.42
2022-08-20T00:58:55.211Z,16.50
2022-08-20T01:00:53.921Z,16.43
2022-08-20T01:01:55.138Z,16.33
2022-08-20T01:02:54.935Z,16.16
2022-08-20T01:03:56.727Z,16.01
2022-08-20T01:04:55.417Z,15.91
2022-08-20T01:05:54.179Z,15.80
2022-08-20T01:06:53.960Z,15.71
2022-08-20T01:07:55.788Z,15.65
2022-08-20T01:08:54.207Z,15.68
2022-08-20T01:11:05.121Z,15.74
2022-08-20T01:11:55.386Z,15.78
2022-08-20T01:12:59.208Z,15.76
2022-08-20T01:13:54.947Z,15.74
2022-08-20T01:14:55.794Z,15.68
2022-08-20T01:15:56.571Z,15.60
2022-08-20T01:16:58.782Z,15.51
2022-08-20T01:17:58.849Z,15.45
2022-08-20T01:18:55.301Z,15.43
2022-08-20T01:20:58.424Z,15.45
2022-08-20T01:26:56.080Z,15.53
2022-08-20T01:27:56.185Z,15.51
2022-08-20T01:28:58.095Z,15.50
2022-08-20T01:29:54.675Z,15.49
2022-08-20T01:30:54.819Z,15.47
2022-08-20T01:31:54.047Z,15.45
2022-08-20T01:32:53.935Z,15.42
2022-08-20T01:33:56.477Z,15.39
2022-08-20T01:34:53.896Z,15.36
2022-08-20T01:35:55.122Z,15.35
2022-08-20T01:36:57.582Z,15.38
2022-08-20T01:37:54.900Z,15.41
2022-08-20T01:38:54.882Z,15.52
2022-08-20T01:39:54.388Z,15.58
2022-08-20T01:40:59.651Z,15.60
2022-08-20T01:42:59.247Z,15.61
2022-08-20T01:44:53.989Z,15.60
2022-08-20T01:45:54.679Z,15.61
2022-08-20T01:46:57.836Z,15.64
2022-08-20T01:49:59.975Z,15.63
2022-08-20T01:51:05.187Z,15.59
2022-08-20T01:51:55.748Z,15.55
2022-08-20T01:53:56.091Z,15.54
2022-08-20T01:54:53.919Z,15.50
2022-08-20T01:55:53.925Z,15.45
2022-08-20T01:56:58.439Z,15.40
2022-08-20T01:57:54.059Z,15.35
2022-08-20T01:58:58.842Z,15.32
2022-08-20T02:01:55.006Z,15.33
2022-08-20T02:06:58.309Z,15.34
2022-08-20T02:15:54.561Z,15.33
2022-08-20T02:21:59.371Z,15.34
2022-08-20T02:22:57.162Z,15.36
2022-08-20T02:23:53.870Z,15.39
2022-08-20T02:24:54.311Z,15.41
2022-08-20T02:25:54.055Z,15.42
2022-08-20T02:26:54.009Z,15.46
2022-08-20T02:27:55.755Z,15.48
2022-08-20T02:28:55.922Z,15.52
2022-08-20T02:29:54.555Z,15.53
2022-08-20T02:30:55.624Z,15.54
2022-08-20T02:32:23.494Z,15.51
2022-08-20T02:34:21.619Z,15.48
2022-08-20T02:34:53.801Z,15.46
2022-08-20T02:35:57.019Z,15.43
2022-08-20T02:36:55.162Z,15.42
2022-08-20T02:37:55.416Z,15.40
2022-08-20T02:38:53.954Z,15.38
2022-08-20T02:39:53.859Z,15.37
2022-08-20T02:40:55.648Z,15.34
2022-08-20T02:41:54.624Z,15.32
2022-08-20T02:42:54.745Z,15.31
2022-08-20T02:43:53.852Z,15.28
2022-08-20T02:44:54.532Z,15.26
2022-08-20T02:45:53.773Z,15.24
2022-08-20T02:46:53.888Z,15.21
2022-08-20T02:47:54.543Z,15.19
2022-08-20T02:48:53.828Z,15.16
2022-08-20T02:49:54.506Z,15.14
2022-08-20T02:50:57.014Z,15.12
2022-08-20T02:51:53.827Z,15.08
2022-08-20T02:52:55.549Z,15.03
2022-08-20T02:53:54.426Z,14.97
2022-08-20T02:54:53.953Z,14.92
2022-08-20T02:55:54.082Z,14.86
2022-08-20T02:56:54.043Z,14.81
2022-08-20T02:57:55.560Z,14.77
2022-08-20T02:58:53.851Z,14.75
2022-08-20T02:59:53.982Z,14.72
2022-08-20T03:00:56.926Z,14.69
2022-08-20T03:01:59.132Z,14.67
2022-08-20T03:02:54.113Z,14.65
2022-08-20T03:03:57.224Z,14.63
2022-08-20T03:04:53.877Z,14.61
2022-08-20T03:05:57.303Z,14.59
2022-08-20T03:06:53.792Z,14.56
2022-08-20T03:07:56.960Z,14.49
2022-08-20T03:08:54.441Z,14.32
2022-08-20T03:09:53.949Z,14.07
2022-08-20T03:10:53.953Z,13.79
2022-08-20T03:11:54.437Z,13.53
2022-08-20T03:12:54.494Z,13.34
2022-08-20T03:13:53.911Z,13.16
2022-08-20T03:14:53.793Z,12.99
2022-08-20T03:15:58.807Z,12.86
2022-08-20T03:16:53.832Z,12.73
2022-08-20T03:17:54.107Z,12.62
2022-08-20T03:18:53.972Z,12.52
2022-08-20T03:19:53.860Z,12.46
2022-08-20T03:20:54.074Z,12.41
2022-08-20T03:21:54.145Z,12.38
2022-08-20T03:22:54.395Z,12.35
2022-08-20T03:23:53.823Z,12.32
2022-08-20T03:24:54.070Z,12.28
2022-08-20T03:25:53.975Z,12.24
2022-08-20T03:26:53.902Z,12.18
2022-08-20T03:27:54.811Z,12.14
2022-08-20T03:28:53.967Z,12.11
2022-08-20T03:29:53.839Z,12.09
2022-08-20T03:30:56.132Z,12.05
2022-08-20T03:31:53.842Z,12.02
2022-08-20T03:32:55.112Z,11.99
2022-08-20T03:33:53.986Z,11.96
2022-08-20T03:34:53.792Z,11.92
2022-08-20T03:35:53.773Z,11.86
2022-08-20T03:36:53.766Z,11.83
2022-08-20T03:37:54.685Z,11.81
2022-08-20T03:38:53.917Z,11.78
2022-08-20T03:39:53.879Z,11.75
2022-08-20T03:40:54.085Z,11.73
2022-08-20T03:41:53.824Z,11.72
2022-08-20T03:42:54.117Z,11.69
2022-08-20T03:43:54.882Z,11.66
2022-08-20T03:44:58.872Z,11.62
2022-08-20T03:45:53.847Z,11.58
2022-08-20T03:46:54.535Z,11.56
2022-08-20T03:47:55.201Z,11.54
2022-08-20T03:49:00.310Z,11.50
2022-08-20T03:49:58.307Z,11.48
2022-08-20T03:50:53.764Z,11.46
2022-08-20T03:51:57.974Z,11.45
2022-08-20T03:52:54.843Z,11.43
2022-08-20T03:53:53.722Z,11.39
2022-08-20T03:54:53.753Z,11.37
2022-08-20T03:56:00.449Z,11.35
2022-08-20T03:56:53.807Z,11.34
2022-08-20T03:59:54.912Z,11.35
2022-08-20T04:00:54.442Z,11.37
2022-08-20T04:01:54.894Z,11.38
2022-08-20T04:05:54.305Z,11.39
2022-08-20T04:06:54.082Z,11.41
2022-08-20T04:07:53.835Z,11.42
2022-08-20T04:08:54.505Z,11.43
2022-08-20T04:10:54.909Z,11.44
2022-08-20T04:13:53.952Z,11.43
2022-08-20T04:14:54.071Z,11.42
2022-08-20T04:15:55.711Z,11.40
2022-08-20T04:16:53.726Z,11.38
2022-08-20T04:17:54.374Z,11.37
2022-08-20T04:18:56.243Z,11.34
2022-08-20T04:19:53.795Z,11.31
2022-08-20T04:20:55.541Z,11.29
2022-08-20T04:21:53.883Z,11.27
2022-08-20T04:22:58.431Z,11.24
2022-08-20T04:23:53.733Z,11.20
2022-08-20T04:24:53.823Z,11.17
2022-08-20T04:25:56.615Z,11.12
2022-08-20T04:26:55.065Z,11.09
2022-08-20T04:27:53.767Z,11.06
2022-08-20T04:28:55.965Z,11.03
2022-08-20T04:29:53.720Z,11.01
2022-08-20T04:30:54.200Z,10.99
2022-08-20T04:31:53.806Z,10.96
2022-08-20T04:32:55.516Z,10.94
2022-08-20T04:34:53.813Z,10.91
2022-08-20T04:35:54.929Z,10.89
2022-08-20T04:36:53.785Z,10.87
2022-08-20T04:38:01.600Z,10.86
2022-08-20T04:38:53.735Z,10.84
2022-08-20T04:40:03.119Z,10.82
2022-08-20T04:40:54.368Z,10.80
2022-08-20T04:41:53.785Z,10.78
2022-08-20T04:42:54.030Z,10.76
2022-08-20T04:43:55.336Z,10.75
2022-08-20T04:44:53.739Z,10.73
2022-08-20T04:45:55.501Z,10.71
2022-08-20T04:46:53.771Z,10.68
2022-08-20T04:47:54.109Z,10.67
2022-08-20T04:48:54.046Z,10.64
2022-08-20T04:50:54.656Z,10.63
2022-08-20T04:51:54.858Z,10.62
2022-08-20T04:52:53.687Z,10.61
2022-08-20T04:53:54.825Z,10.60
2022-08-20T04:54:56.347Z,10.59
2022-08-20T04:55:55.607Z,10.58
2022-08-20T04:57:54.774Z,10.57
2022-08-20T04:58:55.700Z,10.55
2022-08-20T04:59:58.931Z,10.54
2022-08-20T05:00:56.604Z,10.53
2022-08-20T05:01:53.688Z,10.52
2022-08-20T05:02:53.683Z,10.50
2022-08-20T05:03:55.197Z,10.48
2022-08-20T05:04:53.706Z,10.46
2022-08-20T05:05:54.460Z,10.45
2022-08-20T05:06:53.770Z,10.44
2022-08-20T05:07:53.839Z,10.42
2022-08-20T05:10:58.121Z,10.41
2022-08-20T05:11:53.713Z,10.40
2022-08-20T05:12:57.097Z,10.39
2022-08-20T05:13:54.104Z,10.38
2022-08-20T05:14:55.179Z,10.37
2022-08-20T05:15:54.179Z,10.36
2022-08-20T05:18:00.868Z,10.34
2022-08-20T05:19:54.082Z,10.33
2022-08-20T05:21:53.821Z,10.32
2022-08-20T05:22:56.329Z,10.31
2022-08-20T05:23:54.047Z,10.29
2022-08-20T05:24:53.961Z,10.28
2022-08-20T05:25:53.717Z,10.26
2022-08-20T05:26:56.157Z,10.25
2022-08-20T05:28:58.372Z,10.24
2022-08-20T05:30:54.797Z,10.21
2022-08-20T05:31:54.202Z,10.19
2022-08-20T05:32:53.676Z,10.18
2022-08-20T05:33:56.982Z,10.16
2022-08-20T05:34:54.801Z,10.14
2022-08-20T05:35:55.564Z,10.12
2022-08-20T05:36:54.014Z,10.11
2022-08-20T05:37:54.452Z,10.09
2022-08-20T05:38:54.999Z,10.07
2022-08-20T05:39:53.938Z,10.05
2022-08-20T05:40:53.997Z,10.03
2022-08-20T05:41:53.752Z,10.02
2022-08-20T05:42:54.042Z,10.00
2022-08-20T05:44:53.981Z,9.99
2022-08-20T05:45:56.517Z,9.98
2022-08-20T05:47:56.633Z,9.97
2022-08-20T05:51:53.805Z,9.96
2022-08-20T05:54:55.711Z,9.95
2022-08-20T05:55:54.812Z,9.94
2022-08-20T05:58:00.470Z,9.92
2022-08-20T05:59:53.804Z,9.91
2022-08-20T06:03:03.042Z,9.90
2022-08-20T06:04:56.294Z,9.89
2022-08-20T06:05:53.694Z,9.88
2022-08-20T06:08:07.113Z,9.87
2022-08-20T06:08:53.943Z,9.85
2022-08-20T06:10:53.986Z,9.83
2022-08-20T06:11:53.670Z,9.84
2022-08-20T06:12:53.670Z,9.83
2022-08-20T06:13:53.645Z,9.82
2022-08-20T06:14:53.724Z,9.81
2022-08-20T06:16:57.266Z,9.82
2022-08-20T06:17:58.447Z,9.81
2022-08-20T06:18:53.824Z,9.80
2022-08-20T06:19:53.620Z,9.79
2022-08-20T06:24:53.914Z,9.80
2022-08-20T06:25:53.972Z,9.81
2022-08-20T06:26:58.862Z,9.83
2022-08-20T06:27:53.703Z,9.85
2022-08-20T06:28:54.290Z,9.88
2022-08-20T06:29:54.092Z,9.90
2022-08-20T06:30:53.707Z,9.92
2022-08-20T06:31:54.536Z,9.94
2022-08-20T06:33:53.702Z,9.96
2022-08-20T06:34:54.148Z,9.98
2022-08-20T06:35:53.831Z,10.01
2022-08-20T06:36:53.665Z,10.04
2022-08-20T06:37:55.142Z,10.07
2022-08-20T06:38:55.084Z,10.09
2022-08-20T06:39:54.254Z,10.12
2022-08-20T06:40:53.662Z,10.14
2022-08-20T06:41:55.795Z,10.16
2022-08-20T06:42:53.884Z,10.17
2022-08-20T06:43:54.156Z,10.18
2022-08-20T06:44:53.636Z,10.20
2022-08-20T06:45:56.491Z,10.22
2022-08-20T06:46:57.133Z,10.24
2022-08-20T06:47:56.056Z,10.25
2022-08-20T06:49:53.626Z,10.27
2022-08-20T06:51:53.630Z,10.26
2022-08-20T06:53:53.759Z,10.25
2022-08-20T06:55:56.354Z,10.23
2022-08-20T06:59:56.039Z,10.21
2022-08-20T07:01:56.700Z,10.19
2022-08-20T07:02:53.640Z,10.18
2022-08-20T07:03:54.467Z,10.16
2022-08-20T07:04:55.899Z,10.15
2022-08-20T07:05:53.690Z,10.12
2022-08-20T07:06:54.618Z,10.10
2022-08-20T07:07:53.675Z,10.08
2022-08-20T07:08:55.933Z,10.06
2022-08-20T07:10:00.843Z,10.05
2022-08-20T07:10:53.824Z,10.04
2022-08-20T07:12:53.864Z,10.02
2022-08-20T07:13:53.606Z,10.01
2022-08-20T07:14:53.590Z,9.99
2022-08-20T07:15:53.975Z,9.98
2022-08-20T07:18:00.921Z,9.99
2022-08-20T07:19:53.601Z,10.00
2022-08-20T07:21:53.805Z,9.99
2022-08-20T07:22:53.752Z,9.98
2022-08-20T07:24:53.800Z,9.97
2022-08-20T07:25:55.887Z,9.96
2022-08-20T07:26:56.831Z,9.94
2022-08-20T07:27:53.791Z,9.93
2022-08-20T07:30:03.164Z,9.92
2022-08-20T07:31:12.168Z,9.91
2022-08-20T07:32:53.783Z,9.90
2022-08-20T07:35:53.687Z,9.91
2022-08-20T07:37:55.092Z,9.92
2022-08-20T07:38:54.533Z,9.93
2022-08-20T07:42:03.063Z,9.92
2022-08-20T07:42:56.177Z,9.91
2022-08-20T07:43:53.626Z,9.89
2022-08-20T07:44:53.667Z,9.87
2022-08-20T07:45:55.961Z,9.85
2022-08-20T07:46:53.639Z,9.84
2022-08-20T07:47:54.651Z,9.85
2022-08-20T07:48:53.639Z,9.87
2022-08-20T07:49:53.563Z,9.88
2022-08-20T07:53:54.366Z,9.87
2022-08-20T07:54:53.562Z,9.85
2022-08-20T07:56:54.281Z,9.86
2022-08-20T07:57:53.669Z,9.85
2022-08-20T07:58:56.955Z,9.86
2022-08-20T08:00:53.925Z,9.88
2022-08-20T08:01:54.004Z,9.90
2022-08-20T08:02:53.693Z,9.92
2022-08-20T08:03:53.950Z,9.93
2022-08-20T08:04:53.811Z,9.94
2022-08-20T08:05:54.048Z,9.93
2022-08-20T08:06:54.217Z,9.94
2022-08-20T08:09:54.623Z,9.93
2022-08-20T08:11:57.625Z,9.92
2022-08-20T08:13:54.749Z,9.91
2022-08-20T08:14:56.501Z,9.90
2022-08-20T08:15:57.649Z,9.88
2022-08-20T08:16:57.522Z,9.85
2022-08-20T08:17:57.343Z,9.84
2022-08-20T08:18:58.575Z,9.82
2022-08-20T08:19:53.555Z,9.81
2022-08-20T08:20:55.234Z,9.79
2022-08-20T08:21:53.616Z,9.78
2022-08-20T08:22:54.013Z,9.76
2022-08-20T08:23:53.747Z,9.75
2022-08-20T08:24:57.620Z,9.74
2022-08-20T08:25:53.683Z,9.72
2022-08-20T08:26:53.575Z,9.70
2022-08-20T08:27:53.538Z,9.69
2022-08-20T08:28:53.512Z,9.68
2022-08-20T08:29:54.765Z,9.67
2022-08-20T08:30:53.565Z,9.65
2022-08-20T08:31:53.558Z,9.64
2022-08-20T08:38:54.912Z,9.63
2022-08-20T08:42:58.576Z,9.62
2022-08-20T08:44:54.756Z,9.63
2022-08-20T08:46:01.644Z,9.64
2022-08-20T08:47:01.231Z,9.65
2022-08-20T08:47:56.296Z,9.66
2022-08-20T08:50:57.623Z,9.65
2022-08-20T08:53:00.543Z,9.64
2022-08-20T08:59:00.839Z,9.63
2022-08-20T09:01:57.000Z,9.61
2022-08-20T09:03:07.863Z,9.59
2022-08-20T09:03:53.671Z,9.57
2022-08-20T09:04:56.913Z,9.56
2022-08-20T09:08:59.222Z,9.55
2022-08-20T09:09:54.196Z,9.54
2022-08-20T09:12:54.192Z,9.55
2022-08-20T09:13:55.441Z,9.57
2022-08-20T09:14:53.660Z,9.58
2022-08-20T09:15:53.609Z,9.59
2022-08-20T09:16:53.767Z,9.60
2022-08-20T09:17:53.583Z,9.62
2022-08-20T09:18:54.056Z,9.64
2022-08-20T09:22:53.838Z,9.63
2022-08-20T09:24:53.859Z,9.64
2022-08-20T09:25:53.543Z,9.62
2022-08-20T09:30:53.601Z,9.63
2022-08-20T09:32:06.074Z,9.62
2022-08-20T09:32:54.017Z,9.61
2022-08-20T09:33:53.933Z,9.60
2022-08-20T09:34:57.019Z,9.59
2022-08-20T09:35:53.588Z,9.60
2022-08-20T09:36:53.548Z,9.59
2022-08-20T09:39:53.709Z,9.58
2022-08-20T09:40:53.566Z,9.57
2022-08-20T09:41:53.574Z,9.56
2022-08-20T09:42:53.811Z,9.55
2022-08-20T09:43:53.620Z,9.53
2022-08-20T09:44:53.512Z,9.52
2022-08-20T09:45:53.659Z,9.51
2022-08-20T09:46:53.508Z,9.50
2022-08-20T09:51:53.682Z,9.51
2022-08-20T09:52:55.439Z,9.50
2022-08-20T09:55:56.051Z,9.51
2022-08-20T09:56:53.512Z,9.50
2022-08-20T09:57:54.080Z,9.49
2022-08-20T09:59:01.009Z,9.48
2022-08-20T09:59:59.652Z,9.47
2022-08-20T10:00:53.627Z,9.45
2022-08-20T10:01:53.610Z,9.43
2022-08-20T10:02:53.617Z,9.42
2022-08-20T10:03:53.574Z,9.40
2022-08-20T10:04:53.821Z,9.39
2022-08-20T10:06:53.618Z,9.38
2022-08-20T10:08:53.488Z,9.37
2022-08-20T10:09:53.627Z,9.36
2022-08-20T10:10:53.545Z,9.34
2022-08-20T10:11:53.523Z,9.33
2022-08-20T10:12:55.027Z,9.32
2022-08-20T10:19:53.960Z,9.31
2022-08-20T10:21:54.438Z,9.30
2022-08-20T10:23:53.548Z,9.29
2022-08-20T10:25:53.531Z,9.27
2022-08-20T10:26:57.197Z,9.26
2022-08-20T10:27:53.488Z,9.24
2022-08-20T10:28:53.753Z,9.23
2022-08-20T10:29:53.486Z,9.22
2022-08-20T10:30:53.525Z,9.21
2022-08-20T10:31:55.218Z,9.20
2022-08-20T10:32:53.643Z,9.18
2022-08-20T10:33:53.519Z,9.17
2022-08-20T10:34:53.602Z,9.15
2022-08-20T10:38:53.564Z,9.16
2022-08-20T10:39:54.940Z,9.17
2022-08-20T10:40:53.461Z,9.18
2022-08-20T10:41:53.486Z,9.19
2022-08-20T10:43:53.422Z,9.20
2022-08-20T10:44:53.551Z,9.21
2022-08-20T10:46:53.596Z,9.22
2022-08-20T10:51:53.654Z,9.23
2022-08-20T10:52:53.624Z,9.24
2022-08-20T10:53:53.519Z,9.25
2022-08-20T10:56:54.561Z,9.27
2022-08-20T10:58:53.763Z,9.28
2022-08-20T11:00:54.184Z,9.27
2022-08-20T11:04:54.879Z,9.28
2022-08-20T11:09:53.907Z,9.27
2022-08-20T11:10:53.703Z,9.25
2022-08-20T11:11:53.463Z,9.23
2022-08-20T11:12:53.608Z,9.22
2022-08-20T11:19:54.924Z,9.21
2022-08-20T11:20:53.545Z,9.18
2022-08-20T11:21:53.459Z,9.16
2022-08-20T11:22:54.541Z,9.15
2022-08-20T11:23:53.422Z,9.14
2022-08-20T11:24:54.176Z,9.13
2022-08-20T11:25:54.700Z,9.12
2022-08-20T11:26:53.584Z,9.11
2022-08-20T11:27:56.224Z,9.10
2022-08-20T11:28:53.488Z,9.08
2022-08-20T11:31:53.927Z,9.07
2022-08-20T11:33:53.460Z,9.06
2022-08-20T11:34:53.676Z,9.05
2022-08-20T11:40:53.472Z,9.06
2022-08-20T11:41:55.235Z,9.05
2022-08-20T11:44:17.443Z,9.04
2022-08-20T11:44:53.773Z,9.03
2022-08-20T11:46:53.485Z,9.01
2022-08-20T11:47:53.468Z,9.00
2022-08-20T11:48:53.380Z,8.98
2022-08-20T11:52:53.902Z,8.99
2022-08-20T11:53:53.465Z,9.01
2022-08-20T11:55:53.554Z,9.02
2022-08-20T11:56:53.458Z,9.03
2022-08-20T11:57:53.456Z,9.04
2022-08-20T11:59:55.927Z,9.05
2022-08-20T12:04:54.046Z,9.04
2022-08-20T12:05:53.445Z,9.03
2022-08-20T12:07:53.670Z,9.02
2022-08-20T12:08:53.386Z,9.01
2022-08-20T12:14:55.503Z,9.00
2022-08-20T12:15:55.712Z,8.99
2022-08-20T12:16:53.421Z,8.98
2022-08-20T12:17:54.174Z,8.97
2022-08-20T12:19:55.623Z,8.96
2022-08-20T12:21:53.402Z,8.94
2022-08-20T12:23:53.552Z,8.93
2022-08-20T12:24:54.607Z,8.92
2022-08-20T12:26:53.465Z,8.91
2022-08-20T12:28:55.736Z,8.90
2022-08-20T12:29:55.225Z,8.88
2022-08-20T12:30:53.394Z,8.87
2022-08-20T12:32:53.566Z,8.86
2022-08-20T12:37:02.872Z,8.85
2022-08-20T12:38:53.436Z,8.84
2022-08-20T12:39:57.965Z,8.83
2022-08-20T12:40:53.409Z,8.82
2022-08-20T12:41:53.376Z,8.81
2022-08-20T12:43:53.733Z,8.80
2022-08-20T12:45:53.847Z,8.79
2022-08-20T12:46:53.501Z,8.78
2022-08-20T12:47:53.613Z,8.77
2022-08-20T12:48:53.692Z,8.76
2022-08-20T12:50:53.468Z,8.75
2022-08-20T12:51:53.375Z,8.73
2022-08-20T12:52:53.386Z,8.72
2022-08-20T13:00:53.691Z,8.71
2022-08-20T13:01:54.743Z,8.72
2022-08-20T13:04:53.686Z,8.71
2022-08-20T13:09:53.576Z,8.70
2022-08-20T13:10:53.376Z,8.69
2022-08-20T13:12:53.709Z,8.68
2022-08-20T13:15:53.430Z,8.69
2022-08-20T13:16:58.230Z,8.70
2022-08-20T13:21:54.771Z,8.71
2022-08-20T13:24:53.706Z,8.72
2022-08-20T13:25:53.591Z,8.71
2022-08-20T13:26:53.667Z,8.72
2022-08-20T13:31:53.514Z,8.71
2022-08-20T13:32:53.421Z,8.70
2022-08-20T13:34:53.653Z,8.69
2022-08-20T13:36:55.472Z,8.68
2022-08-20T13:40:53.372Z,8.67
2022-08-20T13:42:53.965Z,8.66
2022-08-20T13:44:53.977Z,8.67
2022-08-20T13:47:55.855Z,8.66
2022-08-20T13:50:53.350Z,8.65
2022-08-20T13:52:53.495Z,8.64
2022-08-20T13:56:53.332Z,8.63
2022-08-20T13:59:56.290Z,8.64
2022-08-20T14:03:53.478Z,8.65
2022-08-20T14:05:54.032Z,8.66
2022-08-20T14:06:53.568Z,8.64
2022-08-20T14:08:53.406Z,8.63
2022-08-20T14:09:57.308Z,8.62
2022-08-20T14:11:53.370Z,8.61
2022-08-20T14:12:53.385Z,8.60
2022-08-20T14:13:53.302Z,8.59
2022-08-20T14:14:54.307Z,8.58
2022-08-20T14:18:53.460Z,8.57
2022-08-20T14:20:53.301Z,8.55
2022-08-20T14:21:53.311Z,8.54
2022-08-20T14:23:53.297Z,8.53
2022-08-20T14:25:53.545Z,8.54
2022-08-20T14:26:53.312Z,8.53
2022-08-20T14:27:54.354Z,8.54
2022-08-20T14:28:53.350Z,8.53
2022-08-20T14:30:53.802Z,8.52
2022-08-20T14:32:54.233Z,8.50
2022-08-20T14:34:54.020Z,8.49
2022-08-20T14:39:57.182Z,8.48
2022-08-20T14:41:53.388Z,8.47
2022-08-20T14:42:54.142Z,8.46
2022-08-20T14:44:53.760Z,8.45
2022-08-20T14:47:57.355Z,8.44
2022-08-20T14:48:53.572Z,8.45
2022-08-20T14:50:55.571Z,8.44
2022-08-20T14:52:53.815Z,8.43
2022-08-20T14:53:53.324Z,8.42
2022-08-20T14:54:53.270Z,8.41
2022-08-20T14:55:53.266Z,8.40
2022-08-20T14:57:54.408Z,8.39
2022-08-20T15:00:53.354Z,8.40
2022-08-20T15:03:53.340Z,8.39
2022-08-20T15:05:53.306Z,8.38
2022-08-20T15:07:54.386Z,8.37
2022-08-20T15:10:53.566Z,8.38
2022-08-20T15:12:53.347Z,8.39
2022-08-20T15:14:53.484Z,8.38
2022-08-20T15:15:53.997Z,8.37
2022-08-20T15:17:56.874Z,8.35
2022-08-20T15:18:58.157Z,8.34
2022-08-20T15:19:55.797Z,8.32
2022-08-20T15:20:53.329Z,8.31
2022-08-20T15:21:53.362Z,8.30
2022-08-20T15:22:54.207Z,8.31
2022-08-20T15:23:53.775Z,8.30
2022-08-20T15:25:53.596Z,8.31
2022-08-20T15:29:53.951Z,8.32
2022-08-20T15:30:53.305Z,8.31
2022-08-20T15:36:53.415Z,8.32
2022-08-20T15:37:55.006Z,8.33
2022-08-20T15:38:53.586Z,8.34
2022-08-20T15:40:53.419Z,8.35
2022-08-20T15:41:53.309Z,8.36
2022-08-20T15:45:53.635Z,8.34
2022-08-20T15:46:53.405Z,8.32
2022-08-20T15:48:00.460Z,8.29
2022-08-20T15:48:53.559Z,8.27
2022-08-20T15:51:10.271Z,8.26
2022-08-20T15:52:55.645Z,8.27
2022-08-20T15:58:02.079Z,8.26
2022-08-20T16:00:02.211Z,8.25
2022-08-20T16:01:23.963Z,8.24
2022-08-20T16:02:08.189Z,8.23
2022-08-20T16:02:59.842Z,8.21
2022-08-20T16:04:07.340Z,8.20
2022-08-20T16:05:06.557Z,8.19
2022-08-20T16:06:59.426Z,8.18
2022-08-20T16:08:59.633Z,8.17
2022-08-20T16:10:04.315Z,8.16
2022-08-20T16:12:58.578Z,8.15
2022-08-20T16:14:05.913Z,8.14
2022-08-20T16:17:03.665Z,8.13
2022-08-20T16:17:59.665Z,8.12
2022-08-20T16:18:54.775Z,8.11
2022-08-20T16:19:57.244Z,8.10
2022-08-20T16:20:56.297Z,8.09
2022-08-20T16:21:55.018Z,8.07
2022-08-20T16:23:55.534Z,8.05
2022-08-20T16:24:53.277Z,8.03
2022-08-20T16:26:09.638Z,8.02
2022-08-20T16:27:06.536Z,8.01
2022-08-20T16:29:08.794Z,8.00
2022-08-20T16:30:02.168Z,7.99
2022-08-20T16:32:01.273Z,7.98
2022-08-20T16:34:05.149Z,7.97
2022-08-20T16:35:59.748Z,7.98
2022-08-20T16:38:06.887Z,7.99
2022-08-20T16:39:02.719Z,8.00
2022-08-20T16:40:01.498Z,8.01
2022-08-20T16:42:55.437Z,8.00
2022-08-20T16:43:56.778Z,7.99
2022-08-20T16:44:57.394Z,7.98
2022-08-20T16:46:00.116Z,7.96
2022-08-20T16:47:03.005Z,7.95
2022-08-20T16:47:57.746Z,7.93
2022-08-20T16:48:58.451Z,7.91
2022-08-20T16:52:53.992Z,7.92
2022-08-20T16:53:53.503Z,7.93
2022-08-20T16:54:53.284Z,7.96
2022-08-20T16:55:54.018Z,7.97
2022-08-20T16:57:02.519Z,7.98
2022-08-20T16:58:53.300Z,7.99
2022-08-20T17:01:07.890Z,8.01
2022-08-20T17:03:53.236Z,8.00
2022-08-20T17:05:57.186Z,7.98
2022-08-20T17:08:53.808Z,7.97
2022-08-20T17:11:53.423Z,7.96
2022-08-20T17:12:57.242Z,7.95
2022-08-20T17:17:56.023Z,7.96
2022-08-20T17:21:53.390Z,7.97
2022-08-20T17:24:53.390Z,7.98
2022-08-20T17:27:10.190Z,7.99
2022-08-20T17:27:53.684Z,8.00
2022-08-20T17:28:56.882Z,8.01
2022-08-20T17:29:56.554Z,8.00
2022-08-20T17:30:53.648Z,8.01
2022-08-20T17:37:54.839Z,8.00
2022-08-20T17:41:01.515Z,7.99
2022-08-20T17:41:59.890Z,7.98
2022-08-20T17:44:01.760Z,7.97
2022-08-20T17:45:55.054Z,7.96
2022-08-20T17:46:54.536Z,7.94
2022-08-20T17:48:55.428Z,7.93
2022-08-20T17:50:03.778Z,7.92
2022-08-20T17:50:55.212Z,7.91
2022-08-20T17:51:55.462Z,7.90
2022-08-20T17:52:58.287Z,7.89
2022-08-20T17:53:57.245Z,7.88
2022-08-20T17:57:00.163Z,7.87
2022-08-20T17:57:59.380Z,7.86
2022-08-20T17:59:03.249Z,7.84
2022-08-20T18:00:02.415Z,7.82
2022-08-20T18:00:53.273Z,7.80
2022-08-20T18:01:53.773Z,7.78
2022-08-20T18:02:56.049Z,7.76
2022-08-20T18:03:54.934Z,7.75
2022-08-20T18:04:54.111Z,7.73
2022-08-20T18:06:04.401Z,7.72
2022-08-20T18:08:06.862Z,7.70
2022-08-20T18:08:58.172Z,7.68
2022-08-20T18:10:02.428Z,7.66
2022-08-20T18:11:05.096Z,7.64
2022-08-20T18:11:56.689Z,7.62
2022-08-20T18:13:02.412Z,7.58
2022-08-20T18:14:10.105Z,7.55
2022-08-20T18:15:08.264Z,7.54
2022-08-20T18:15:58.015Z,7.51
2022-08-20T18:16:59.893Z,7.49
2022-08-20T18:18:02.852Z,7.46
2022-08-20T18:19:06.847Z,7.43
2022-08-20T18:20:11.450Z,7.40
2022-08-20T18:21:11.179Z,7.38
2022-08-20T18:22:01.860Z,7.35
2022-08-20T18:23:00.234Z,7.32
2022-08-20T18:24:02.410Z,7.30
2022-08-20T18:25:02.788Z,7.28
2022-08-20T18:26:00.920Z,7.27
2022-08-20T18:26:59.397Z,7.25
2022-08-20T18:27:56.675Z,7.24
2022-08-20T18:28:59.096Z,7.23
2022-08-20T18:30:58.109Z,7.22
2022-08-20T18:33:04.888Z,7.21
2022-08-20T18:33:53.446Z,7.20
2022-08-20T18:34:53.851Z,7.19
2022-08-20T18:36:07.820Z,7.17
2022-08-20T18:37:00.963Z,7.15
2022-08-20T18:37:53.495Z,7.14
2022-08-20T18:39:02.089Z,7.13
2022-08-20T18:42:00.798Z,7.12
2022-08-20T18:44:55.073Z,7.11
2022-08-20T18:45:53.407Z,7.09
2022-08-20T18:47:53.565Z,7.08
2022-08-20T18:48:59.281Z,7.07
2022-08-20T18:50:57.655Z,7.05
2022-08-20T18:51:53.401Z,7.03
2022-08-20T18:53:03.653Z,7.00
2022-08-20T18:53:53.307Z,6.99
2022-08-20T18:54:57.334Z,6.98
2022-08-20T18:56:02.968Z,6.99
2022-08-20T18:57:11.132Z,6.98
2022-08-20T19:05:02.032Z,6.97
2022-08-20T19:06:11.166Z,6.98
2022-08-20T19:07:54.746Z,6.97
2022-08-20T19:09:04.313Z,6.96
2022-08-20T19:10:06.687Z,6.95
2022-08-20T19:11:07.292Z,6.94
2022-08-20T19:12:01.828Z,6.93
2022-08-20T19:13:15.536Z,6.92
2022-08-20T19:15:02.997Z,6.91
2022-08-20T19:17:05.081Z,6.90
2022-08-20T19:18:06.804Z,6.89
2022-08-20T19:20:57.269Z,6.88
2022-08-20T19:24:59.008Z,6.87
2022-08-20T19:25:58.255Z,6.88
2022-08-20T19:26:57.398Z,6.87
2022-08-20T19:27:54.630Z,6.88
2022-08-20T19:28:57.953Z,6.87
2022-08-20T19:30:53.628Z,6.88
2022-08-20T19:31:59.104Z,6.87
2022-08-20T19:40:53.635Z,6.89
2022-08-20T19:41:55.961Z,6.90
2022-08-20T19:42:53.782Z,6.91
2022-08-20T19:43:55.153Z,6.92
2022-08-20T19:44:55.684Z,6.93
2022-08-20T19:45:55.338Z,6.95
2022-08-20T19:46:53.825Z,6.96